createdAt,value
2019-04-16T00:01:44.511Z,6.30
2019-04-16T00:04:10.140Z,6.30
2019-04-16T00:06:39.138Z,6.30
2019-04-16T00:09:07.356Z,6.40
2019-04-16T00:11:38.516Z,6.40
2019-04-16T00:14:06.764Z,6.40
2019-04-16T00:16:34.984Z,6.40
2019-04-16T00:19:05.596Z,6.40
2019-04-16T00:21:38.468Z,6.30
2019-04-16T00:24:06.408Z,6.30
2019-04-16T00:26:34.584Z,6.20
2019-04-16T00:29:03.189Z,6.20
2019-04-16T00:31:31.071Z,6.30
2019-04-16T00:33:59.311Z,6.20
2019-04-16T00:36:27.531Z,6.10
2019-04-16T00:38:55.745Z,6.00
2019-04-16T00:41:23.998Z,5.90
2019-04-16T00:43:52.239Z,5.70
2019-04-16T00:46:20.479Z,5.60
2019-04-16T00:48:48.659Z,5.50
2019-04-16T00:51:16.879Z,5.60
2019-04-16T00:53:45.118Z,5.50
2019-04-16T00:56:13.473Z,5.50
2019-04-16T00:58:41.608Z,5.50
2019-04-16T01:01:09.832Z,5.50
2019-04-16T01:03:38.087Z,5.50
2019-04-16T01:06:07.758Z,5.50
2019-04-16T01:08:34.631Z,5.50
2019-04-16T01:11:02.817Z,5.60
2019-04-16T01:13:31.068Z,5.60
2019-04-16T01:16:02.465Z,5.60
2019-04-16T01:18:27.523Z,5.70
2019-04-16T01:20:55.768Z,5.70
2019-04-16T01:23:24.014Z,5.70
2019-04-16T01:25:55.370Z,5.70
2019-04-16T01:28:20.822Z,5.60
2019-04-16T01:30:52.953Z,5.50
2019-04-16T01:33:24.042Z,5.40
2019-04-16T01:35:54.119Z,5.30
2019-04-16T01:38:28.053Z,5.10
2019-04-16T01:41:00.317Z,5.10
2019-04-16T01:43:28.570Z,5.10
2019-04-16T01:46:00.844Z,5.20
2019-04-16T01:48:25.008Z,5.20
2019-04-16T01:50:53.280Z,5.20
2019-04-16T01:53:21.731Z,5.30
2019-04-16T01:55:49.814Z,5.40
2019-04-16T01:58:18.063Z,5.50
2019-04-16T02:00:46.282Z,5.50
2019-04-16T02:03:17.502Z,5.40
2019-04-16T02:05:42.761Z,5.20
2019-04-16T02:08:11.069Z,5.10
2019-04-16T02:10:39.184Z,5.00
2019-04-16T02:13:07.425Z,4.90
2019-04-16T02:15:35.632Z,5.00
2019-04-16T02:18:04.000Z,5.10
2019-04-16T02:20:32.136Z,5.50
2019-04-16T02:23:00.319Z,5.70
2019-04-16T02:25:28.544Z,5.50
2019-04-16T02:27:57.650Z,5.50
2019-04-16T02:30:25.049Z,5.30
2019-04-16T02:32:53.300Z,5.40
2019-04-16T02:35:21.630Z,5.30
2019-04-16T02:37:49.844Z,5.20
2019-04-16T02:40:18.927Z,5.10
2019-04-16T02:42:46.341Z,5.00
2019-04-16T02:45:14.545Z,4.90
2019-04-16T02:47:42.856Z,4.80
2019-04-16T02:50:11.097Z,4.80
2019-04-16T02:52:39.322Z,4.70
2019-04-16T02:55:11.828Z,4.70
2019-04-16T02:57:43.625Z,4.80
2019-04-16T03:00:17.565Z,4.90
2019-04-16T03:02:46.748Z,4.90
2019-04-16T03:05:16.767Z,4.90
2019-04-16T03:07:44.987Z,4.90
2019-04-16T03:10:13.997Z,4.80
2019-04-16T03:12:41.428Z,4.80
2019-04-16T03:15:09.599Z,4.80
2019-04-16T03:17:39.508Z,4.70
2019-04-16T03:20:06.914Z,4.70
2019-04-16T03:22:35.116Z,4.60
2019-04-16T03:25:03.323Z,4.60
2019-04-16T03:27:31.576Z,5.10
2019-04-16T03:30:03.442Z,5.30
2019-04-16T03:32:33.186Z,5.30
2019-04-16T03:34:56.286Z,5.10
2019-04-16T03:37:24.481Z,5.00
2019-04-16T03:39:52.720Z,5.00
2019-04-16T03:42:20.952Z,5.00
2019-04-16T03:44:49.189Z,5.10
2019-04-16T03:47:19.115Z,5.00
2019-04-16T03:49:45.654Z,5.00
2019-04-16T03:52:13.848Z,4.80
2019-04-16T03:54:42.030Z,4.70
2019-04-16T03:57:10.341Z,4.80
2019-04-16T03:59:40.003Z,4.90
2019-04-16T04:02:06.737Z,5.00
2019-04-16T04:04:35.010Z,5.20
2019-04-16T04:07:03.241Z,5.60
2019-04-16T04:09:31.473Z,5.70
2019-04-16T04:11:59.730Z,5.70
2019-04-16T04:14:27.944Z,5.70
2019-04-16T04:16:56.172Z,5.70
2019-04-16T04:19:24.410Z,5.80
2019-04-16T04:21:53.709Z,5.90
2019-04-16T04:24:20.905Z,5.90
2019-04-16T04:26:49.153Z,5.60
2019-04-16T04:29:17.328Z,5.50
2019-04-16T04:31:45.578Z,5.40
2019-04-16T04:34:15.738Z,5.30
2019-04-16T04:36:42.029Z,5.10
2019-04-16T04:39:14.717Z,4.90
2019-04-16T04:41:38.536Z,4.90
2019-04-16T04:44:06.783Z,4.90
2019-04-16T04:46:34.963Z,4.80
2019-04-16T04:49:03.181Z,4.70
2019-04-16T04:51:31.393Z,4.70
2019-04-16T04:53:59.629Z,4.70
2019-04-16T04:56:28.563Z,4.90
2019-04-16T04:58:56.092Z,4.90
2019-04-16T05:01:24.319Z,4.80
2019-04-16T05:03:54.476Z,4.90
2019-04-16T05:06:26.835Z,4.90
2019-04-16T05:08:50.978Z,4.90
2019-04-16T05:11:19.200Z,4.90
2019-04-16T05:13:47.407Z,4.80
2019-04-16T05:16:15.667Z,4.80
2019-04-16T05:18:43.912Z,4.70
2019-04-16T05:21:12.109Z,4.60
2019-04-16T05:23:40.309Z,4.60
2019-04-16T05:26:09.920Z,4.60
2019-04-16T05:28:36.848Z,4.50
2019-04-16T05:31:05.175Z,4.50
2019-04-16T05:33:34.474Z,4.60
2019-04-16T05:36:01.574Z,4.60
2019-04-16T05:38:29.797Z,4.70
2019-04-16T05:40:58.044Z,4.80
2019-04-16T05:43:30.031Z,4.80
2019-04-16T05:45:54.480Z,4.90
2019-04-16T05:48:22.825Z,4.90
2019-04-16T05:50:50.931Z,5.00
2019-04-16T05:53:19.173Z,5.10
2019-04-16T05:55:50.045Z,5.20
2019-04-16T05:58:15.658Z,5.30
2019-04-16T06:00:45.687Z,5.50
2019-04-16T06:03:13.899Z,5.70
2019-04-16T06:05:42.217Z,6.00
2019-04-16T06:08:11.391Z,6.30
2019-04-16T06:10:39.636Z,6.40
2019-04-16T06:13:09.386Z,6.60
2019-04-16T06:15:42.486Z,6.70
2019-04-16T06:18:10.736Z,6.70
2019-04-16T06:20:39.846Z,6.80
2019-04-16T06:23:10.904Z,6.70
2019-04-16T06:25:44.652Z,6.70
2019-04-16T06:28:15.769Z,6.80
2019-04-16T06:30:45.935Z,6.80
2019-04-16T06:33:14.148Z,7.00
2019-04-16T06:35:46.218Z,7.10
2019-04-16T06:38:14.447Z,7.20
2019-04-16T06:40:44.631Z,7.40
2019-04-16T06:43:12.856Z,7.70
2019-04-16T06:45:45.828Z,7.90
2019-04-16T06:48:14.995Z,8.20
2019-04-16T06:50:43.205Z,8.60
2019-04-16T06:53:15.246Z,9.00
2019-04-16T06:55:45.228Z,9.30
2019-04-16T06:58:18.277Z,9.60
2019-04-16T07:00:45.488Z,9.70
2019-04-16T07:03:13.710Z,9.90
2019-04-16T07:05:44.822Z,9.90
2019-04-16T07:08:17.781Z,10.00
2019-04-16T07:10:46.810Z,10.10
2019-04-16T07:13:15.042Z,10.20
2019-04-16T07:15:43.266Z,10.30
2019-04-16T07:18:11.481Z,10.30
2019-04-16T07:20:42.316Z,10.40
2019-04-16T07:23:08.026Z,10.40
2019-04-16T07:25:41.734Z,10.40
2019-04-16T07:28:04.515Z,10.40
2019-04-16T07:30:35.511Z,10.40
2019-04-16T07:33:02.101Z,10.50
2019-04-16T07:35:30.146Z,10.60
2019-04-16T07:38:04.966Z,10.60
2019-04-16T07:40:32.222Z,10.60
2019-04-16T07:43:03.500Z,10.50
2019-04-16T07:45:32.559Z,10.70
2019-04-16T07:48:05.901Z,11.00
2019-04-16T07:50:36.622Z,11.30
2019-04-16T07:53:05.683Z,11.40
2019-04-16T07:55:34.701Z,11.50
2019-04-16T07:58:02.967Z,11.50
2019-04-16T08:00:31.159Z,11.50
2019-04-16T08:02:59.377Z,11.60
2019-04-16T08:05:28.123Z,11.70
2019-04-16T08:07:55.895Z,11.70
2019-04-16T08:10:24.123Z,11.80
2019-04-16T08:12:52.407Z,11.90
2019-04-16T08:15:20.597Z,12.00
2019-04-16T08:17:49.916Z,12.10
2019-04-16T08:20:21.028Z,12.20
2019-04-16T08:22:47.536Z,12.20
2019-04-16T08:25:14.764Z,12.30
2019-04-16T08:27:43.310Z,12.30
2019-04-16T08:30:11.564Z,12.30
2019-04-16T08:32:39.756Z,12.40
2019-04-16T08:35:08.020Z,12.50
2019-04-16T08:37:48.415Z,12.60
2019-04-16T08:40:05.426Z,12.70
2019-04-16T08:42:43.832Z,12.90
2019-04-16T08:45:07.212Z,13.10
2019-04-16T08:47:30.180Z,13.30
2019-04-16T08:49:58.569Z,13.40
2019-04-16T08:52:26.649Z,13.50
2019-04-16T08:54:55.038Z,13.60
2019-04-16T08:57:23.114Z,13.70
2019-04-16T08:59:51.371Z,13.70
2019-04-16T09:02:19.587Z,13.90
2019-04-16T09:04:48.245Z,14.00
2019-04-16T09:07:21.896Z,14.30
2019-04-16T09:09:50.157Z,14.50
2019-04-16T09:12:18.462Z,14.60
2019-04-16T09:14:46.672Z,14.60
2019-04-16T09:17:15.686Z,14.60
2019-04-16T09:19:43.925Z,14.70
2019-04-16T09:22:15.501Z,14.80
2019-04-16T09:24:41.670Z,14.80
2019-04-16T09:27:12.454Z,14.70
2019-04-16T09:29:43.486Z,14.70
2019-04-16T09:32:17.250Z,14.80
2019-04-16T09:34:47.271Z,14.80
2019-04-16T09:37:17.397Z,14.90
2019-04-16T09:39:48.553Z,15.00
2019-04-16T09:42:16.747Z,15.20
2019-04-16T09:44:45.040Z,15.50
2019-04-16T09:47:13.573Z,15.80
2019-04-16T09:49:41.476Z,16.00
2019-04-16T09:52:09.746Z,16.10
2019-04-16T09:54:37.953Z,16.20
2019-04-16T09:57:06.163Z,16.30
2019-04-16T09:59:35.158Z,16.30
2019-04-16T10:02:03.440Z,16.50
2019-04-16T10:04:31.634Z,16.50
2019-04-16T10:06:59.874Z,16.60
2019-04-16T10:09:28.143Z,16.60
2019-04-16T10:11:57.306Z,16.70
2019-04-16T10:14:24.569Z,17.00
2019-04-16T10:16:52.852Z,17.10
2019-04-16T10:19:21.692Z,17.30
2019-04-16T10:21:52.948Z,17.40
2019-04-16T10:24:19.349Z,17.40
2019-04-16T10:26:47.577Z,17.50
2019-04-16T10:29:15.796Z,17.50
2019-04-16T10:31:44.065Z,17.50
2019-04-16T10:34:12.276Z,17.50
2019-04-16T10:36:40.512Z,17.60
2019-04-16T10:39:09.671Z,18.00
2019-04-16T10:41:41.800Z,17.90
2019-04-16T10:44:13.975Z,17.80
2019-04-16T10:46:42.202Z,18.00
2019-04-16T10:49:10.426Z,18.10
2019-04-16T10:51:42.509Z,18.30
2019-04-16T10:54:15.660Z,18.30
2019-04-16T10:56:46.842Z,18.40
2019-04-16T10:59:18.867Z,18.50
2019-04-16T11:01:52.656Z,18.70
2019-04-16T11:04:24.600Z,18.90
2019-04-16T11:06:52.908Z,18.90
2019-04-16T11:09:21.150Z,18.90
2019-04-16T11:11:53.277Z,19.00
2019-04-16T11:14:21.523Z,19.20
2019-04-16T11:16:49.752Z,19.30
2019-04-16T11:19:19.661Z,19.50
2019-04-16T11:21:47.887Z,20.50
2019-04-16T11:24:16.366Z,22.80
2019-04-16T11:26:44.580Z,24.40
2019-04-16T11:29:12.547Z,24.90
2019-04-16T11:31:40.811Z,24.90
2019-04-16T11:34:09.026Z,26.40
2019-04-16T11:36:37.276Z,27.30
2019-04-16T11:39:05.491Z,28.10
2019-04-16T11:41:33.766Z,27.20
2019-04-16T11:44:14.228Z,26.40
2019-04-16T11:46:30.239Z,27.20
2019-04-16T11:48:58.545Z,27.60
2019-04-16T11:51:26.743Z,28.50
2019-04-16T11:53:54.997Z,28.90
2019-04-16T11:56:23.231Z,28.70
2019-04-16T11:58:51.490Z,28.80
2019-04-16T12:01:22.904Z,29.50
2019-04-16T12:03:47.966Z,29.60
2019-04-16T12:06:27.765Z,28.70
2019-04-16T12:08:50.620Z,28.80
2019-04-16T12:11:19.586Z,29.70
2019-04-16T12:13:47.847Z,29.10
2019-04-16T12:16:16.181Z,29.00
2019-04-16T12:18:46.222Z,30.00
2019-04-16T12:21:14.429Z,30.70
2019-04-16T12:23:43.435Z,30.30
2019-04-16T12:26:11.697Z,28.70
2019-04-16T12:28:43.762Z,28.50
2019-04-16T12:31:16.628Z,28.40
2019-04-16T12:33:44.871Z,27.80
2019-04-16T12:36:15.186Z,27.10
2019-04-16T12:38:47.083Z,26.80
2019-04-16T12:41:16.117Z,29.20
2019-04-16T12:43:44.367Z,29.70
2019-04-16T12:46:16.363Z,28.40
2019-04-16T12:48:44.616Z,27.90
2019-04-16T12:51:12.824Z,27.70
2019-04-16T12:53:45.994Z,27.00
2019-04-16T12:56:16.946Z,26.00
2019-04-16T12:58:50.369Z,25.20
2019-04-16T13:01:15.135Z,25.40
2019-04-16T13:03:46.616Z,26.10
2019-04-16T13:06:14.424Z,26.90
2019-04-16T13:08:42.673Z,28.20
2019-04-16T13:11:14.859Z,30.30
2019-04-16T13:13:48.498Z,31.50
2019-04-16T13:16:18.523Z,30.20
2019-04-16T18:43:44.418Z,14.10
2019-04-16T18:46:15.188Z,14.20
2019-04-16T18:48:44.612Z,14.20
2019-04-16T18:51:09.104Z,14.20
2019-04-16T18:53:43.268Z,14.20
2019-04-16T18:56:09.363Z,14.20
2019-04-16T18:58:37.561Z,14.10
2019-04-16T19:01:06.580Z,14.20
2019-04-16T19:03:35.070Z,14.10
2019-04-16T19:06:03.378Z,14.10
2019-04-16T19:08:41.434Z,14.00
2019-04-16T19:11:00.027Z,14.00
2019-04-16T19:13:28.290Z,13.90
2019-04-16T19:15:56.956Z,13.90
2019-04-16T19:18:25.198Z,13.80
2019-04-16T19:20:53.571Z,13.70
2019-04-16T19:23:22.260Z,13.70
2019-04-16T19:25:51.788Z,13.80
2019-04-16T19:28:20.121Z,13.70
2019-04-16T19:30:46.583Z,13.60
2019-04-16T19:33:14.994Z,13.60
2019-04-16T19:35:43.279Z,13.60
2019-04-16T19:38:11.534Z,13.50
2019-04-16T19:40:39.778Z,13.40
2019-04-16T19:43:08.049Z,13.30
2019-04-16T19:45:36.434Z,13.40
2019-04-16T19:48:05.093Z,13.40
2019-04-16T19:50:36.357Z,13.40
2019-04-16T19:53:01.357Z,13.20
2019-04-16T19:55:29.582Z,13.10
2019-04-16T19:57:58.125Z,13.10
2019-04-16T20:00:26.076Z,13.00
2019-04-16T20:02:54.350Z,12.90
2019-04-16T20:05:22.526Z,12.80
2019-04-16T20:07:50.782Z,12.80
2019-04-16T20:10:19.047Z,12.80
2019-04-16T20:12:47.267Z,12.80
2019-04-16T20:15:15.463Z,12.80
2019-04-16T20:17:43.702Z,12.80
2019-04-16T20:20:11.905Z,12.80
2019-04-16T20:22:40.088Z,12.80
2019-04-16T20:25:08.345Z,12.80
2019-04-16T20:27:39.609Z,12.80
2019-04-16T20:30:04.863Z,12.70
2019-04-16T20:32:34.303Z,12.70
2019-04-16T20:35:01.404Z,12.60
2019-04-16T20:37:29.594Z,12.60
2019-04-16T20:39:57.859Z,12.50
2019-04-16T20:42:26.082Z,12.50
2019-04-16T20:44:54.566Z,12.40
2019-04-16T20:47:22.558Z,12.40
2019-04-16T20:49:50.771Z,12.30
2019-04-16T20:52:18.958Z,12.20
2019-04-16T20:54:47.174Z,12.10
2019-04-16T20:57:15.424Z,12.00
2019-04-16T20:59:43.668Z,11.90
2019-04-16T21:02:11.896Z,11.90
2019-04-16T21:04:40.149Z,11.80
2019-04-16T21:07:14.357Z,11.80
2019-04-16T21:09:36.633Z,11.80
2019-04-16T21:12:04.848Z,11.70
2019-04-16T21:14:33.060Z,11.70
2019-04-16T21:17:06.003Z,11.60
2019-04-16T21:19:35.478Z,11.60
2019-04-16T21:22:03.278Z,11.60
2019-04-16T21:24:31.508Z,11.60
2019-04-16T21:26:59.724Z,11.60
2019-04-16T21:29:33.304Z,11.60
2019-04-16T21:31:57.968Z,11.60
2019-04-16T21:34:29.906Z,11.50
2019-04-16T21:37:01.278Z,11.50
2019-04-16T21:39:32.402Z,11.50
2019-04-16T21:42:02.412Z,11.40
2019-04-16T21:44:34.698Z,11.40
2019-04-16T21:47:02.892Z,11.30
2019-04-16T21:49:38.510Z,11.20
2019-04-16T21:52:04.990Z,11.20
2019-04-16T21:54:33.211Z,11.20
2019-04-16T21:57:01.391Z,11.20
2019-04-16T21:59:29.651Z,11.10
2019-04-16T22:01:57.907Z,11.20
2019-04-16T22:04:26.103Z,11.10
2019-04-16T22:06:54.407Z,11.10
2019-04-16T22:09:22.701Z,11.10
2019-04-16T22:11:50.948Z,11.00
2019-04-16T22:14:21.970Z,11.00
2019-04-16T22:16:47.406Z,11.00
2019-04-16T22:19:15.588Z,10.90
2019-04-16T22:21:43.910Z,10.90
2019-04-16T22:24:12.042Z,10.90
2019-04-16T22:26:40.292Z,10.90
2019-04-16T22:29:08.879Z,10.90
2019-04-16T22:31:37.092Z,10.90
2019-04-16T22:34:05.315Z,10.90
2019-04-16T22:36:33.569Z,10.80
2019-04-16T22:39:07.428Z,10.80
2019-04-16T22:41:36.393Z,10.80
2019-04-16T22:44:05.477Z,10.80
2019-04-16T22:46:33.545Z,10.80
2019-04-16T22:49:01.827Z,10.70
2019-04-16T22:51:30.073Z,10.70
2019-04-16T22:53:58.411Z,10.70
2019-04-16T22:56:28.372Z,10.70
2019-04-16T22:58:54.725Z,10.60
2019-04-16T23:01:22.915Z,10.60
2019-04-16T23:03:53.310Z,10.60
2019-04-16T23:06:19.421Z,10.60
2019-04-16T23:08:47.653Z,10.60
2019-04-16T23:11:15.905Z,10.60
2019-04-16T23:13:44.080Z,10.60
2019-04-16T23:16:12.339Z,10.60
2019-04-16T23:18:40.602Z,10.60
2019-04-16T23:21:10.677Z,10.50
2019-04-16T23:23:37.067Z,10.50
2019-04-16T23:26:05.447Z,10.60
2019-04-16T23:28:33.514Z,10.50
2019-04-16T23:31:01.725Z,10.50
2019-04-16T23:33:32.818Z,10.50
2019-04-16T23:35:58.569Z,10.50
2019-04-16T23:38:31.152Z,10.50
2019-04-16T23:40:54.750Z,10.50
2019-04-16T23:43:26.917Z,10.40
2019-04-16T23:46:01.694Z,10.40
2019-04-16T23:48:29.815Z,10.30
2019-04-16T23:51:00.982Z,10.30
2019-04-16T23:53:31.097Z,10.30
2019-04-16T23:56:03.576Z,10.20
2019-04-16T23:58:33.189Z,10.20
